Time;durP1;ratioP1;P1;durP2;ratioP2;P2;SDS_P1;SDS_P2;PMS_P1;PMS_P2;Temp;Humidity;BMP_temperature;BMP_pressure;BME280_temperature;BME280_humidity;BME280_pressure;Samples;Min_cycle;Max_cycle;Signal;HPM_P1;HPM_P2
2021/12/09 00:01:38;;;;;;;93.73;87.57;;;4.10;99.90;;;;;;5049826;28;20200;-81
2021/12/09 00:04:07;;;;;;;96.63;90.03;;;4.00;99.90;;;;;;5062555;28;20204;-80
2021/12/09 00:06:36;;;;;;;93.87;87.57;;;4.00;99.90;;;;;;5064838;28;20280;-80
2021/12/09 00:09:09;;;;;;;94.67;88.37;;;4.00;99.90;;;;;;5045121;28;21110;-79
2021/12/09 00:11:42;;;;;;;95.77;89.83;;;4.00;99.90;;;;;;5077373;28;20766;-81
2021/12/09 00:14:14;;;;;;;96.33;89.63;;;4.00;99.90;;;;;;5053130;28;20186;-79
2021/12/09 00:16:40;;;;;;;96.37;89.60;;;4.00;99.90;;;;;;5069060;28;20216;-80
2021/12/09 00:19:07;;;;;;;95.60;89.33;;;3.90;99.90;;;;;;5053699;28;20213;-80
2021/12/09 00:21:33;;;;;;;95.33;88.47;;;3.90;99.90;;;;;;5064995;28;20326;-81
2021/12/09 00:23:59;;;;;;;97.13;90.90;;;3.90;99.90;;;;;;5084322;28;20557;-80
2021/12/09 00:26:25;;;;;;;94.83;88.60;;;4.00;99.90;;;;;;5079175;28;20221;-79
2021/12/09 00:28:50;;;;;;;96.53;90.43;;;4.00;99.90;;;;;;5052199;28;20186;-81
2021/12/09 00:31:18;;;;;;;96.40;90.27;;;4.00;99.90;;;;;;5036001;28;20198;-81
2021/12/09 00:33:45;;;;;;;96.73;90.67;;;4.00;99.90;;;;;;5063077;28;20218;-80
2021/12/09 00:36:13;;;;;;;97.07;89.93;;;4.00;99.90;;;;;;5051836;28;20214;-80
2021/12/09 00:38:41;;;;;;;96.57;90.17;;;4.00;99.90;;;;;;5068668;28;20213;-80
2021/12/09 00:41:11;;;;;;;97.87;91.40;;;4.00;99.90;;;;;;5051506;28;20191;-80
2021/12/09 00:43:38;;;;;;;97.10;90.67;;;4.00;99.90;;;;;;5064273;28;20190;-81
2021/12/09 00:46:05;;;;;;;98.73;92.17;;;4.00;99.90;;;;;;5068351;28;20324;-80
2021/12/09 00:48:31;;;;;;;98.77;91.90;;;4.00;99.90;;;;;;5064280;28;20272;-80
2021/12/09 00:50:58;;;;;;;98.13;91.03;;;3.90;99.90;;;;;;5052516;28;20225;-81
2021/12/09 00:53:25;;;;;;;97.03;90.90;;;3.90;99.90;;;;;;5050934;28;20749;-79
2021/12/09 00:55:50;;;;;;;96.47;90.33;;;3.90;99.90;;;;;;5052142;28;20190;-80
2021/12/09 00:58:16;;;;;;;97.27;90.97;;;3.90;99.90;;;;;;5062981;28;20228;-81
2021/12/09 01:00:42;;;;;;;95.87;89.77;;;3.90;99.90;;;;;;5050484;28;20194;-80
2021/12/09 01:03:08;;;;;;;98.17;91.67;;;3.90;99.90;;;;;;5069852;28;20198;-81
2021/12/09 01:05:34;;;;;;;99.70;92.67;;;3.90;99.90;;;;;;5063386;28;20228;-81
2021/12/09 01:07:59;;;;;;;99.53;93.27;;;3.90;99.90;;;;;;5050568;28;20851;-81
2021/12/09 01:10:28;;;;;;;98.90;92.10;;;3.90;99.90;;;;;;5064263;28;20195;-81
2021/12/09 01:12:54;;;;;;;97.97;91.83;;;3.80;99.90;;;;;;5063095;28;20225;-81
2021/12/09 01:15:21;;;;;;;99.07;92.63;;;3.90;99.90;;;;;;5061237;28;20209;-80
2021/12/09 01:17:47;;;;;;;95.57;89.63;;;3.80;99.90;;;;;;5050737;28;20205;-79
2021/12/09 01:20:17;;;;;;;95.60;89.50;;;3.80;99.90;;;;;;5062185;28;20212;-81
2021/12/09 01:22:44;;;;;;;97.00;91.40;;;3.80;99.90;;;;;;5063023;28;20189;-80
2021/12/09 01:25:13;;;;;;;96.83;91.30;;;3.80;99.90;;;;;;5064015;28;21078;-81
2021/12/09 01:27:42;;;;;;;95.90;89.80;;;3.80;99.90;;;;;;5062825;28;20201;-81
2021/12/09 01:30:14;;;;;;;98.97;92.60;;;3.80;99.90;;;;;;5062060;28;20200;-79
2021/12/09 01:32:43;;;;;;;99.40;92.63;;;3.80;99.90;;;;;;5064191;28;20174;-79
2021/12/09 01:35:10;;;;;;;95.67;90.20;;;3.80;99.90;;;;;;5046232;28;20210;-79
2021/12/09 01:37:38;;;;;;;99.23;93.00;;;3.80;99.90;;;;;;5063427;28;20218;-81
2021/12/09 01:40:05;;;;;;;96.13;90.13;;;3.70;99.90;;;;;;5062903;28;20194;-79
2021/12/09 01:42:30;;;;;;;99.00;92.77;;;3.70;99.90;;;;;;5062736;28;20755;-80
2021/12/09 01:44:56;;;;;;;95.13;89.40;;;3.70;99.90;;;;;;5067717;28;20227;-80
2021/12/09 01:47:22;;;;;;;96.93;90.73;;;3.80;99.90;;;;;;5051354;28;20217;-80
2021/12/09 01:49:48;;;;;;;95.83;90.03;;;3.70;99.90;;;;;;5050252;28;20610;-80
2021/12/09 01:52:14;;;;;;;96.13;89.97;;;3.70;99.90;;;;;;5049893;28;20843;-79
2021/12/09 01:54:40;;;;;;;98.80;92.07;;;3.70;99.90;;;;;;5061982;28;20190;-79
2021/12/09 01:57:07;;;;;;;97.97;92.23;;;3.70;99.90;;;;;;5050402;28;20335;-81
2021/12/09 01:59:33;;;;;;;95.93;90.13;;;3.70;99.90;;;;;;5063760;28;20221;-80
2021/12/09 02:02:00;;;;;;;98.33;92.20;;;3.70;99.90;;;;;;5033509;28;20206;-81
2021/12/09 02:04:25;;;;;;;97.17;90.80;;;3.70;99.90;;;;;;5066160;28;20206;-81
2021/12/09 02:06:52;;;;;;;96.80;90.53;;;3.80;99.90;;;;;;5060735;28;20216;-80
2021/12/09 02:09:18;;;;;;;98.03;91.63;;;3.70;99.90;;;;;;5060803;28;20187;-81
2021/12/09 02:11:45;;;;;;;97.40;90.73;;;3.70;99.90;;;;;;5050124;28;20185;-81
2021/12/09 02:14:12;;;;;;;96.27;90.30;;;3.70;99.90;;;;;;5049819;28;20564;-80
2021/12/09 02:16:39;;;;;;;97.43;91.33;;;3.70;99.90;;;;;;5031365;28;20749;-80
2021/12/09 02:19:06;;;;;;;94.63;88.27;;;3.70;99.90;;;;;;5066675;28;20300;-81
2021/12/09 02:21:33;;;;;;;96.60;89.43;;;3.60;99.90;;;;;;5048881;28;20198;-80
2021/12/09 02:24:06;;;;;;;96.27;90.33;;;3.60;99.90;;;;;;5050123;28;20220;-81
2021/12/09 02:26:38;;;;;;;98.83;92.07;;;3.60;99.90;;;;;;5063012;28;20206;-80
2021/12/09 02:29:07;;;;;;;96.00;90.10;;;3.60;99.90;;;;;;5061982;28;20870;-80
2021/12/09 02:31:33;;;;;;;98.13;91.80;;;3.60;99.90;;;;;;5061462;28;20190;-80
2021/12/09 02:34:00;;;;;;;97.97;92.23;;;3.60;99.90;;;;;;5061354;28;20614;-80
2021/12/09 02:36:26;;;;;;;97.20;91.17;;;3.60;99.90;;;;;;5061368;28;20256;-80
2021/12/09 02:38:53;;;;;;;101.70;94.93;;;3.60;99.90;;;;;;5062663;28;20189;-80
2021/12/09 02:41:24;;;;;;;100.20;93.57;;;3.50;99.90;;;;;;5066410;28;20193;-80
2021/12/09 02:43:55;;;;;;;100.50;93.63;;;3.50;99.90;;;;;;5059732;28;20193;-80
2021/12/09 02:46:23;;;;;;;100.30;94.13;;;3.50;99.90;;;;;;5065883;28;20194;-80
2021/12/09 02:48:49;;;;;;;101.23;95.10;;;3.50;99.90;;;;;;5061417;28;20194;-79
2021/12/09 02:51:15;;;;;;;98.87;92.67;;;3.50;99.90;;;;;;5061868;28;20195;-80
2021/12/09 02:53:41;;;;;;;99.63;93.57;;;3.50;99.90;;;;;;5031867;28;20186;-81
2021/12/09 02:56:07;;;;;;;100.97;94.87;;;3.50;99.90;;;;;;5050058;28;20281;-80
2021/12/09 02:58:33;;;;;;;102.33;96.30;;;3.40;99.90;;;;;;5061944;28;20226;-81
2021/12/09 03:01:15;;;;;;;103.10;95.70;;;3.50;99.90;;;;;;5061371;28;20224;-81
2021/12/09 03:03:51;;;;;;;102.47;95.97;;;3.40;99.90;;;;;;5061206;28;20251;-81
2021/12/09 03:06:23;;;;;;;101.47;95.07;;;3.40;99.90;;;;;;5061212;28;20798;-81
2021/12/09 03:08:50;;;;;;;98.83;93.03;;;3.40;99.90;;;;;;5059921;28;20231;-81
2021/12/09 03:11:20;;;;;;;100.47;93.63;;;3.40;99.90;;;;;;5060246;28;20237;-79
2021/12/09 03:13:47;;;;;;;100.97;93.83;;;3.40;99.90;;;;;;5079705;28;20273;-81
2021/12/09 03:16:13;;;;;;;100.77;94.30;;;3.40;99.90;;;;;;5048955;28;20197;-80
2021/12/09 03:18:45;;;;;;;98.50;92.33;;;3.30;99.90;;;;;;5049147;28;20210;-80
2021/12/09 03:21:21;;;;;;;101.97;95.47;;;3.30;99.90;;;;;;5081605;28;20192;-80
2021/12/09 03:23:47;;;;;;;100.87;94.67;;;3.30;99.90;;;;;;5060516;28;20190;-80
2021/12/09 03:26:15;;;;;;;98.70;91.80;;;3.30;99.90;;;;;;5081424;28;20773;-82
2021/12/09 03:28:40;;;;;;;100.23;93.87;;;3.30;99.90;;;;;;5058271;28;20198;-79
2021/12/09 03:31:06;;;;;;;101.60;94.90;;;3.30;99.90;;;;;;5048985;28;20578;-80
2021/12/09 03:33:33;;;;;;;101.53;94.63;;;3.30;99.90;;;;;;5047284;28;20860;-79
2021/12/09 03:36:01;;;;;;;101.90;95.17;;;3.30;99.90;;;;;;5048662;28;20198;-80
2021/12/09 03:38:28;;;;;;;102.07;95.47;;;3.30;99.90;;;;;;5042044;28;20197;-80
2021/12/09 03:40:55;;;;;;;103.43;96.53;;;3.30;99.90;;;;;;5060454;28;20186;-80
2021/12/09 03:43:21;;;;;;;100.67;94.33;;;3.30;99.90;;;;;;5046694;28;20199;-80
2021/12/09 03:45:48;;;;;;;103.77;96.27;;;3.30;99.90;;;;;;5059943;28;20663;-79
2021/12/09 03:48:14;;;;;;;101.70;95.17;;;3.30;99.90;;;;;;5059565;28;20205;-80
2021/12/09 03:50:40;;;;;;;100.23;94.13;;;3.30;99.90;;;;;;5060055;28;20224;-80
2021/12/09 03:53:06;;;;;;;100.70;94.17;;;3.30;99.90;;;;;;5064290;28;20191;-81
2021/12/09 03:55:31;;;;;;;102.30;95.90;;;3.20;99.90;;;;;;5043137;28;20203;-80
2021/12/09 03:57:57;;;;;;;101.40;95.07;;;3.30;99.90;;;;;;5059169;28;20230;-80
2021/12/09 04:00:24;;;;;;;104.57;97.37;;;3.30;99.90;;;;;;5044871;28;20628;-80
2021/12/09 04:02:50;;;;;;;100.90;94.50;;;3.30;99.90;;;;;;5061161;28;20185;-79
2021/12/09 04:05:15;;;;;;;103.23;95.90;;;3.20;99.90;;;;;;5041614;28;20221;-81
2021/12/09 04:07:41;;;;;;;99.73;93.17;;;3.30;99.90;;;;;;5059529;28;20263;-81
2021/12/09 04:10:08;;;;;;;100.53;94.00;;;3.20;99.90;;;;;;5031330;28;20346;-81
2021/12/09 04:12:34;;;;;;;99.37;93.13;;;3.20;99.90;;;;;;5059787;28;20185;-81
2021/12/09 04:15:00;;;;;;;99.97;93.53;;;3.20;99.90;;;;;;5041713;28;20189;-80
2021/12/09 04:17:25;;;;;;;99.37;92.83;;;3.20;99.90;;;;;;5064842;28;20185;-80
2021/12/09 04:19:51;;;;;;;98.97;92.60;;;3.30;99.90;;;;;;5063932;28;20209;-80
2021/12/09 04:22:19;;;;;;;101.07;94.23;;;3.30;99.90;;;;;;5031489;28;20193;-81
2021/12/09 04:24:46;;;;;;;98.93;92.50;;;3.30;99.90;;;;;;5059683;28;20201;-79
2021/12/09 04:27:12;;;;;;;99.73;92.97;;;3.40;99.90;;;;;;5065391;28;20209;-81
2021/12/09 04:29:38;;;;;;;98.83;91.87;;;3.40;99.90;;;;;;5031210;28;20189;-79
2021/12/09 04:32:05;;;;;;;98.17;91.43;;;3.50;99.90;;;;;;5048530;28;20202;-80
2021/12/09 04:34:30;;;;;;;99.83;93.20;;;3.40;99.90;;;;;;5061978;28;20932;-80
2021/12/09 04:36:57;;;;;;;98.20;91.60;;;3.40;99.90;;;;;;5064374;28;20323;-79
2021/12/09 04:39:23;;;;;;;98.23;91.87;;;3.40;99.90;;;;;;5063242;28;20201;-80
2021/12/09 04:41:50;;;;;;;98.87;90.87;;;3.50;99.90;;;;;;5030870;28;20198;-79
2021/12/09 04:44:17;;;;;;;101.07;93.73;;;3.40;99.90;;;;;;5064531;28;20186;-80
2021/12/09 04:46:43;;;;;;;100.03;92.27;;;3.40;99.90;;;;;;5060050;28;20213;-80
2021/12/09 04:49:09;;;;;;;99.30;92.33;;;3.50;99.90;;;;;;5050898;28;20213;-81
2021/12/09 04:51:35;;;;;;;98.63;91.83;;;3.50;99.90;;;;;;5085065;28;20576;-81
2021/12/09 04:54:03;;;;;;;99.27;92.73;;;3.50;99.90;;;;;;5051818;28;20190;-81
2021/12/09 04:56:29;;;;;;;98.60;90.87;;;3.50;99.90;;;;;;5063376;28;20247;-79
2021/12/09 04:58:55;;;;;;;98.97;91.37;;;3.50;99.90;;;;;;5062527;28;20220;-80
2021/12/09 05:01:21;;;;;;;100.00;92.47;;;3.60;99.90;;;;;;5046454;28;20194;-80
2021/12/09 05:03:48;;;;;;;97.70;90.83;;;3.60;99.90;;;;;;5067788;28;20216;-80
2021/12/09 05:06:15;;;;;;;98.77;92.00;;;3.60;99.90;;;;;;5062917;28;20193;-80
2021/12/09 05:08:47;;;;;;;97.90;90.87;;;3.60;99.90;;;;;;5064266;28;20847;-80
2021/12/09 05:14:00;;;;;;;95.77;88.63;;;3.60;99.90;;;;;;5067135;28;20189;-81
2021/12/09 05:16:27;;;;;;;96.37;89.13;;;3.60;99.90;;;;;;5061541;28;20216;-80
2021/12/09 05:18:58;;;;;;;93.77;86.93;;;3.60;99.90;;;;;;5063543;28;20205;-79
2021/12/09 05:21:36;;;;;;;91.20;84.87;;;3.70;99.90;;;;;;5062090;28;20214;-81
2021/12/09 05:24:04;;;;;;;92.60;86.27;;;3.70;99.90;;;;;;5051679;28;20197;-81
2021/12/09 05:26:35;;;;;;;93.67;86.67;;;3.70;99.90;;;;;;5063152;28;20238;-80
2021/12/09 05:29:01;;;;;;;90.83;84.00;;;3.70;99.90;;;;;;5044752;28;20178;-80
2021/12/09 05:34:13;;;;;;;93.40;86.63;;;3.70;99.90;;;;;;5054630;28;20202;-80
2021/12/09 05:36:40;;;;;;;92.43;85.27;;;3.80;99.90;;;;;;5051731;28;20209;-81
2021/12/09 05:39:10;;;;;;;88.07;82.07;;;3.80;99.90;;;;;;5062555;28;20901;-81
2021/12/09 05:41:36;;;;;;;90.50;83.80;;;3.80;99.90;;;;;;5062528;28;20182;-80
2021/12/09 05:44:04;;;;;;;87.27;80.93;;;3.80;99.90;;;;;;5063881;28;20272;-81
2021/12/09 05:46:31;;;;;;;90.80;83.63;;;3.70;99.90;;;;;;5062214;28;20186;-81
2021/12/09 05:48:57;;;;;;;90.83;84.07;;;3.70;99.90;;;;;;5063107;28;20203;-80
2021/12/09 05:51:24;;;;;;;88.43;82.07;;;3.70;99.90;;;;;;5036814;28;20255;-81
2021/12/09 05:53:50;;;;;;;86.93;81.27;;;3.70;99.90;;;;;;5050480;28;20318;-81
2021/12/09 05:56:16;;;;;;;85.90;79.80;;;3.70;99.90;;;;;;5061464;28;20551;-81
2021/12/09 05:58:42;;;;;;;88.47;81.83;;;3.70;99.90;;;;;;5034831;28;20256;-80
2021/12/09 06:01:08;;;;;;;88.97;82.40;;;3.60;99.90;;;;;;5045846;28;20652;-80
2021/12/09 06:03:33;;;;;;;85.70;79.87;;;3.60;99.90;;;;;;5045490;28;20177;-81
2021/12/09 06:06:00;;;;;;;85.90;79.83;;;3.60;99.90;;;;;;5028078;28;20185;-80
2021/12/09 06:08:26;;;;;;;86.87;80.63;;;3.70;99.90;;;;;;5063787;28;20259;-80
2021/12/09 06:10:52;;;;;;;85.13;79.13;;;3.60;99.90;;;;;;5064286;28;20191;-80
2021/12/09 06:13:18;;;;;;;87.43;80.90;;;3.60;99.90;;;;;;5063563;28;20242;-80
2021/12/09 06:15:44;;;;;;;85.70;79.07;;;3.70;99.90;;;;;;5066923;28;20198;-79
2021/12/09 06:18:11;;;;;;;80.37;74.77;;;3.60;99.90;;;;;;5061164;28;20185;-81
2021/12/09 06:20:36;;;;;;;88.23;81.83;;;3.60;99.90;;;;;;5050685;28;20256;-80
2021/12/09 06:23:03;;;;;;;83.03;77.13;;;3.60;99.90;;;;;;5062114;28;20224;-81
2021/12/09 06:25:30;;;;;;;82.80;77.03;;;3.60;99.90;;;;;;5050377;28;20190;-80
2021/12/09 06:27:56;;;;;;;84.77;78.53;;;3.60;99.90;;;;;;5077470;28;20235;-81
2021/12/09 06:30:23;;;;;;;88.80;81.80;;;3.50;99.90;;;;;;5050384;28;20205;-81
2021/12/09 06:32:48;;;;;;;87.20;81.10;;;3.50;99.90;;;;;;5067110;28;20206;-81
2021/12/09 06:35:14;;;;;;;89.10;82.67;;;3.50;99.90;;;;;;5045005;28;20295;-80
2021/12/09 06:37:44;;;;;;;87.80;81.70;;;3.50;99.90;;;;;;5049753;28;20235;-80
2021/12/09 06:40:13;;;;;;;88.43;81.87;;;3.50;99.90;;;;;;5062954;28;20178;-82
2021/12/09 06:42:40;;;;;;;89.67;83.10;;;3.50;99.90;;;;;;5066001;28;20644;-80
2021/12/09 06:45:07;;;;;;;90.33;83.80;;;3.60;99.90;;;;;;5060398;28;20178;-81
2021/12/09 06:47:33;;;;;;;93.73;86.13;;;3.60;99.90;;;;;;5067278;28;20228;-81
2021/12/09 06:49:58;;;;;;;89.30;82.50;;;3.60;99.90;;;;;;5051735;28;20198;-80
2021/12/09 06:52:24;;;;;;;88.00;81.43;;;3.60;99.90;;;;;;5050152;28;20186;-81
2021/12/09 06:54:50;;;;;;;87.23;80.13;;;3.60;99.90;;;;;;5048417;28;20182;-81
2021/12/09 06:57:15;;;;;;;90.93;83.80;;;3.60;99.90;;;;;;5050279;28;20187;-82
2021/12/09 06:59:42;;;;;;;87.50;81.23;;;3.70;99.90;;;;;;5049939;28;20325;-81
2021/12/09 07:02:08;;;;;;;85.50;79.03;;;3.70;99.90;;;;;;5058112;28;20190;-82
2021/12/09 07:04:35;;;;;;;86.60;80.97;;;3.70;99.90;;;;;;5067251;28;20217;-82
2021/12/09 07:07:02;;;;;;;87.53;81.60;;;3.70;99.90;;;;;;5059845;28;20743;-81
2021/12/09 07:09:29;;;;;;;88.33;82.47;;;3.60;99.90;;;;;;5049285;28;20220;-81
2021/12/09 07:11:56;;;;;;;84.83;78.80;;;3.60;99.90;;;;;;5043262;28;20178;-82
2021/12/09 07:14:22;;;;;;;89.70;83.13;;;3.60;99.90;;;;;;5043232;28;20569;-80
2021/12/09 07:16:48;;;;;;;89.53;83.67;;;3.60;99.90;;;;;;5059319;28;20204;-82
2021/12/09 07:19:13;;;;;;;92.70;86.17;;;3.50;99.90;;;;;;5066268;28;20693;-81
2021/12/09 07:21:39;;;;;;;89.30;83.00;;;3.50;99.90;;;;;;5075425;28;20200;-81
2021/12/09 07:24:06;;;;;;;89.47;82.90;;;3.50;99.90;;;;;;5049330;28;20193;-79
2021/12/09 07:26:32;;;;;;;89.17;82.57;;;3.50;99.90;;;;;;5060034;28;20201;-81
2021/12/09 07:28:59;;;;;;;88.20;81.83;;;3.60;99.90;;;;;;5060678;28;20679;-80
2021/12/09 07:31:27;;;;;;;88.13;81.93;;;3.60;99.90;;;;;;5046423;28;20194;-80
2021/12/09 07:33:54;;;;;;;88.70;82.43;;;3.70;99.90;;;;;;5042571;28;20198;-80
2021/12/09 07:36:19;;;;;;;86.87;80.73;;;3.80;99.90;;;;;;5063491;28;20296;-81
2021/12/09 07:38:48;;;;;;;86.63;81.20;;;3.80;99.90;;;;;;5048456;28;20568;-81
2021/12/09 07:41:15;;;;;;;87.40;81.63;;;3.90;99.90;;;;;;5047475;28;20307;-79
2021/12/09 07:43:41;;;;;;;85.03;79.40;;;3.90;99.90;;;;;;5057451;28;20190;-80
2021/12/09 07:46:07;;;;;;;86.67;80.97;;;4.00;99.90;;;;;;5047828;28;20189;-80
2021/12/09 07:48:33;;;;;;;87.23;81.23;;;4.00;99.90;;;;;;5065540;28;20653;-80
2021/12/09 07:50:59;;;;;;;86.27;80.17;;;4.00;99.90;;;;;;5044685;28;20199;-79
2021/12/09 07:53:25;;;;;;;85.30;79.43;;;4.00;99.90;;;;;;5081309;28;20228;-81
2021/12/09 07:55:52;;;;;;;85.00;79.00;;;4.10;99.90;;;;;;5061125;28;20619;-80
2021/12/09 07:58:18;;;;;;;86.67;81.07;;;4.10;99.90;;;;;;5063349;28;20232;-82
2021/12/09 08:00:46;;;;;;;86.43;80.13;;;4.10;99.90;;;;;;5065188;28;20209;-79
2021/12/09 08:03:12;;;;;;;87.07;80.83;;;4.10;99.90;;;;;;5063633;28;20255;-82
2021/12/09 08:05:41;;;;;;;85.27;79.57;;;4.20;99.90;;;;;;5059528;28;20296;-81
2021/12/09 08:08:07;;;;;;;86.37;80.07;;;4.20;99.90;;;;;;5061602;28;20201;-81
2021/12/09 08:10:33;;;;;;;85.23;79.47;;;4.30;99.90;;;;;;5065072;28;20379;-80
2021/12/09 08:13:00;;;;;;;83.90;77.07;;;4.40;99.90;;;;;;5074732;28;20246;-81
2021/12/09 08:15:34;;;;;;;84.77;78.40;;;4.40;99.90;;;;;;5063378;28;20192;-82
2021/12/09 08:18:04;;;;;;;87.87;80.17;;;4.50;99.90;;;;;;5059995;28;20225;-81
2021/12/09 08:20:32;;;;;;;82.67;77.47;;;4.50;99.90;;;;;;5081668;28;20236;-80
2021/12/09 08:22:58;;;;;;;81.60;75.00;;;4.60;99.90;;;;;;5048113;28;20200;-79
2021/12/09 08:25:24;;;;;;;82.07;76.47;;;4.70;99.90;;;;;;5061611;28;20273;-80
2021/12/09 08:27:50;;;;;;;86.13;79.80;;;4.70;99.90;;;;;;5052176;28;20216;-80
2021/12/09 08:30:20;;;;;;;82.83;77.30;;;4.70;99.90;;;;;;5062607;28;20186;-79
2021/12/09 08:32:46;;;;;;;79.80;74.57;;;4.70;99.90;;;;;;5062729;28;20181;-81
2021/12/09 08:35:12;;;;;;;79.07;73.73;;;4.60;99.90;;;;;;5064358;28;20207;-80
2021/12/09 08:37:38;;;;;;;83.77;78.40;;;4.60;99.90;;;;;;5062636;28;20201;-81
2021/12/09 08:40:06;;;;;;;82.20;76.90;;;4.60;99.90;;;;;;5063773;28;20189;-81
2021/12/09 08:42:32;;;;;;;79.97;74.80;;;4.50;99.90;;;;;;5067823;28;20250;-81
2021/12/09 08:44:58;;;;;;;79.90;74.33;;;4.50;99.90;;;;;;5066423;28;20659;-81
2021/12/09 08:47:23;;;;;;;81.87;76.73;;;4.50;99.90;;;;;;5062111;28;20206;-80
2021/12/09 08:49:50;;;;;;;83.23;77.80;;;4.60;99.90;;;;;;5060685;28;20936;-79
2021/12/09 08:52:15;;;;;;;81.10;75.77;;;4.60;99.90;;;;;;5066455;28;20295;-79
2021/12/09 08:54:41;;;;;;;82.17;76.23;;;4.60;99.90;;;;;;5062886;28;20212;-81
2021/12/09 08:57:07;;;;;;;80.27;74.63;;;4.70;99.90;;;;;;5051110;28;20255;-82
2021/12/09 08:59:33;;;;;;;81.70;75.70;;;4.70;99.90;;;;;;5032539;28;20730;-81
2021/12/09 09:01:59;;;;;;;78.43;73.23;;;4.70;99.90;;;;;;5063095;28;20208;-80
2021/12/09 09:04:24;;;;;;;77.00;71.50;;;4.70;99.90;;;;;;5032722;28;20220;-80
2021/12/09 09:06:56;;;;;;;75.23;69.80;;;4.80;99.90;;;;;;5049822;28;20219;-81
2021/12/09 09:09:24;;;;;;;76.87;71.40;;;4.80;99.90;;;;;;5061597;28;20240;-80
2021/12/09 09:11:50;;;;;;;77.23;72.27;;;4.80;99.90;;;;;;5063098;28;20196;-80
2021/12/09 09:14:16;;;;;;;79.37;73.40;;;4.80;99.90;;;;;;5044868;28;20178;-80
2021/12/09 09:16:42;;;;;;;77.17;72.00;;;4.80;99.90;;;;;;5045958;28;20228;-81
2021/12/09 09:19:08;;;;;;;79.87;74.00;;;4.90;99.90;;;;;;5049684;28;20217;-81
2021/12/09 09:21:34;;;;;;;75.77;69.97;;;5.00;99.90;;;;;;5060272;28;20217;-80
2021/12/09 09:24:00;;;;;;;74.53;69.27;;;4.90;99.90;;;;;;5046651;28;20518;-81
2021/12/09 09:26:26;;;;;;;74.30;69.50;;;4.90;99.90;;;;;;5049898;28;20716;-80
2021/12/09 09:28:52;;;;;;;77.43;71.70;;;5.00;99.90;;;;;;5049775;28;20198;-81
2021/12/09 09:31:20;;;;;;;75.50;70.27;;;5.00;99.90;;;;;;5061961;28;20204;-80
2021/12/09 09:33:46;;;;;;;75.23;69.97;;;5.00;99.90;;;;;;5048423;28;20544;-82
2021/12/09 09:36:11;;;;;;;77.40;71.07;;;5.10;99.90;;;;;;5050057;28;20278;-81
2021/12/09 09:38:37;;;;;;;75.70;70.43;;;5.10;99.90;;;;;;5046848;28;20225;-80
2021/12/09 09:41:09;;;;;;;74.37;69.30;;;5.20;99.90;;;;;;5061493;28;20647;-79
2021/12/09 09:43:56;;;;;;;79.00;72.33;;;5.20;99.90;;;;;;5062830;28;20182;-79
2021/12/09 09:46:29;;;;;;;76.47;70.47;;;5.20;99.90;;;;;;5066803;28;20186;-81
2021/12/09 09:48:56;;;;;;;76.23;70.90;;;5.20;99.90;;;;;;5066343;28;20261;-81
2021/12/09 09:51:26;;;;;;;78.57;72.77;;;5.20;99.90;;;;;;5049316;28;20233;-80
2021/12/09 09:53:51;;;;;;;79.70;73.23;;;5.20;99.90;;;;;;5062986;28;20205;-80
2021/12/09 09:56:22;;;;;;;79.57;73.67;;;5.20;99.90;;;;;;5061562;28;20227;-82
2021/12/09 09:58:54;;;;;;;80.50;74.63;;;5.30;99.90;;;;;;5063982;28;20181;-81
2021/12/09 10:01:20;;;;;;;81.63;75.13;;;5.30;99.90;;;;;;5074928;28;20200;-80
2021/12/09 10:03:48;;;;;;;79.57;73.43;;;5.40;99.90;;;;;;5048056;28;20241;-80
2021/12/09 10:06:18;;;;;;;81.03;74.97;;;5.30;99.90;;;;;;5063450;28;20178;-81
2021/12/09 10:08:44;;;;;;;78.10;72.00;;;5.40;99.90;;;;;;5061777;28;20371;-81
2021/12/09 10:11:10;;;;;;;78.43;72.73;;;5.40;99.90;;;;;;5051271;28;20329;-81
2021/12/09 10:13:39;;;;;;;79.83;73.80;;;5.40;99.90;;;;;;5044366;28;20204;-81
2021/12/09 10:16:21;;;;;;;78.80;72.50;;;5.40;99.90;;;;;;5060150;28;20251;-81
2021/12/09 10:18:50;;;;;;;78.70;72.63;;;5.40;99.90;;;;;;5057876;28;20197;-81
2021/12/09 10:21:22;;;;;;;82.00;76.07;;;5.50;99.90;;;;;;5060485;28;20186;-80
2021/12/09 10:23:56;;;;;;;83.17;75.43;;;5.50;99.90;;;;;;5060002;28;20193;-80
2021/12/09 10:26:24;;;;;;;83.10;76.40;;;5.60;99.90;;;;;;5061216;28;20546;-80
2021/12/09 10:28:55;;;;;;;83.40;77.07;;;5.70;99.90;;;;;;5062398;28;20185;-81
2021/12/09 10:31:28;;;;;;;84.27;77.43;;;5.80;99.90;;;;;;5061029;28;20178;-81
2021/12/09 10:34:06;;;;;;;85.23;78.10;;;5.80;99.90;;;;;;5066673;28;20218;-82
2021/12/09 10:37:00;;;;;;;82.33;76.13;;;5.90;99.90;;;;;;5061550;28;20207;-81
2021/12/09 10:39:33;;;;;;;81.20;75.47;;;5.90;99.90;;;;;;5058783;28;20642;-81
2021/12/09 10:42:03;;;;;;;83.10;76.73;;;5.90;99.90;;;;;;5078468;28;20180;-80
2021/12/09 10:44:34;;;;;;;82.53;76.20;;;5.80;99.90;;;;;;5061412;28;20186;-80
2021/12/09 10:47:11;;;;;;;85.53;78.70;;;5.70;99.90;;;;;;5082001;28;20263;-80
2021/12/09 10:50:05;;;;;;;81.57;75.43;;;5.70;99.90;;;;;;5060723;28;20216;-80
2021/12/09 10:52:41;;;;;;;84.13;77.43;;;5.70;99.90;;;;;;5061446;28;20174;-82
2021/12/09 10:55:30;;;;;;;87.03;80.13;;;5.70;99.90;;;;;;5057729;28;20177;-81
2021/12/09 10:58:01;;;;;;;86.43;79.83;;;5.80;99.90;;;;;;5060126;28;20182;-80
2021/12/09 11:00:40;;;;;;;87.20;80.97;;;5.80;99.90;;;;;;5060668;28;20327;-81
2021/12/09 11:03:23;;;;;;;88.10;81.47;;;5.90;99.90;;;;;;5062366;28;20243;-81
2021/12/09 11:06:04;;;;;;;85.37;78.93;;;5.90;99.90;;;;;;5062363;28;20181;-81
2021/12/09 11:08:35;;;;;;;86.73;80.90;;;5.90;99.90;;;;;;5062079;28;20574;-80
2021/12/09 11:11:05;;;;;;;89.67;83.13;;;5.90;99.90;;;;;;5078034;28;20244;-80
2021/12/09 11:14:03;;;;;;;87.00;80.17;;;6.00;99.90;;;;;;5062608;28;20265;-79
2021/12/09 11:16:36;;;;;;;87.93;81.37;;;6.00;99.90;;;;;;5050268;28;20216;-80
2021/12/09 11:22:05;;;;;;;89.77;82.73;;;6.10;99.90;;;;;;5061034;28;20178;-81
2021/12/09 11:24:37;;;;;;;88.53;81.60;;;6.10;99.90;;;;;;5060635;28;20239;-82
2021/12/09 11:27:09;;;;;;;92.07;84.53;;;6.10;99.90;;;;;;5082364;28;20283;-82
2021/12/09 11:29:44;;;;;;;89.87;82.67;;;6.20;99.90;;;;;;5060083;28;20714;-80
2021/12/09 11:32:35;;;;;;;89.87;82.77;;;6.30;99.90;;;;;;5060568;28;20177;-82
2021/12/09 11:35:27;;;;;;;88.70;81.77;;;6.40;99.90;;;;;;5061715;28;20206;-81
2021/12/09 11:38:11;;;;;;;88.77;82.07;;;6.40;99.90;;;;;;5060541;28;20228;-82
2021/12/09 11:40:47;;;;;;;87.57;80.60;;;6.30;99.90;;;;;;5060357;28;20290;-81
2021/12/09 11:43:18;;;;;;;91.20;84.53;;;6.30;99.90;;;;;;5064677;28;20193;-80
2021/12/09 11:45:47;;;;;;;104.47;97.07;;;6.20;99.90;;;;;;5061216;28;20295;-81
2021/12/09 11:48:14;;;;;;;117.87;109.70;;;6.10;99.90;;;;;;5058088;28;20655;-81
2021/12/09 11:50:46;;;;;;;128.10;119.47;;;6.00;99.90;;;;;;5039653;28;20656;-81
2021/12/09 11:53:14;;;;;;;133.20;123.60;;;6.00;99.90;;;;;;5079843;28;20190;-81
2021/12/09 11:55:45;;;;;;;132.73;123.80;;;6.00;99.90;;;;;;5058258;28;20281;-81
2021/12/09 11:58:26;;;;;;;154.97;144.57;;;6.00;99.90;;;;;;5048222;28;20204;-79
2021/12/09 12:13:05;;;;;;;495.20;459.77;;;5.80;99.90;;;;;;5027926;28;20595;-81
2021/12/09 12:35:03;;;;;;;516.87;478.37;;;5.70;99.90;;;;;;5059529;28;20957;-81
2021/12/09 12:37:53;;;;;;;527.77;487.77;;;5.70;99.90;;;;;;5060340;28;20222;-82
2021/12/09 12:40:49;;;;;;;529.10;489.30;;;5.70;99.90;;;;;;5078600;28;20637;-81
2021/12/09 12:43:39;;;;;;;521.07;481.43;;;5.70;99.90;;;;;;5058723;28;20181;-81
2021/12/09 12:49:01;;;;;;;502.57;465.90;;;5.70;99.90;;;;;;5060140;28;20217;-81
2021/12/09 12:51:49;;;;;;;482.53;446.63;;;5.70;99.90;;;;;;5062267;28;20182;-80
2021/12/09 12:54:22;;;;;;;508.73;470.50;;;5.80;99.90;;;;;;5060923;28;20192;-82
2021/12/09 12:56:55;;;;;;;518.10;479.37;;;5.90;99.90;;;;;;5072288;28;20190;-81
2021/12/09 12:59:30;;;;;;;510.37;472.43;;;5.90;99.90;;;;;;5055301;28;20236;-81
2021/12/09 13:02:59;;;;;;;514.97;476.77;;;5.90;99.90;;;;;;5060874;28;20181;-82
2021/12/09 13:05:17;;;;;;;527.83;488.87;;;6.00;99.90;;;;;;5057565;28;20206;-81
2021/12/09 13:14:21;;;;;;;511.33;473.40;;;6.10;99.90;;;;;;5061743;28;20606;-80
2021/12/09 13:19:15;;;;;;;531.87;492.33;;;6.10;99.90;;;;;;5064090;28;20213;-80
2021/12/09 13:22:03;;;;;;;521.97;482.80;;;6.10;99.90;;;;;;5061593;28;20233;-81
2021/12/09 13:24:59;;;;;;;524.37;485.80;;;6.00;99.90;;;;;;5052513;28;20240;-80
2021/12/09 13:30:35;;;;;;;521.53;482.67;;;6.10;99.90;;;;;;5061995;28;20771;-81
2021/12/09 13:47:08;;;;;;;488.30;451.60;;;6.20;99.90;;;;;;5061614;28;20628;-79
2021/12/09 13:49:52;;;;;;;494.73;458.67;;;6.30;99.90;;;;;;5061988;28;20212;-80
2021/12/09 13:55:12;;;;;;;519.60;483.33;;;6.30;99.90;;;;;;5061668;28;20193;-81